createdAt,value
2022-08-14T00:02:27.202Z,50.97
2022-08-14T00:04:56.157Z,51.36
2022-08-14T00:07:24.076Z,51.99
2022-08-14T00:09:55.566Z,51.83
2022-08-14T00:12:48.189Z,52.74
2022-08-14T00:15:22.711Z,53.19
2022-08-14T00:17:53.395Z,53.28
2022-08-14T00:20:30.823Z,53.31
2022-08-14T00:23:11.953Z,53.27
2022-08-14T00:25:42.884Z,53.35
2022-08-14T00:28:15.621Z,52.81
2022-08-14T00:30:46.753Z,52.97
2022-08-14T00:33:16.663Z,52.26
2022-08-14T00:36:35.669Z,52.48
2022-08-14T00:38:34.731Z,52.18
2022-08-14T00:41:06.959Z,52.55
2022-08-14T00:43:41.684Z,51.92
2022-08-14T00:46:32.663Z,53.21
2022-08-14T00:49:02.252Z,53.26
2022-08-14T00:51:37.838Z,53.24
2022-08-14T00:54:17.102Z,53.02
2022-08-14T00:56:54.874Z,53.70
2022-08-14T00:59:24.710Z,54.01
2022-08-14T01:01:55.620Z,54.47
2022-08-14T01:04:37.691Z,54.13
2022-08-14T01:07:14.168Z,55.30
2022-08-14T01:09:42.646Z,55.85
2022-08-14T01:12:13.282Z,54.96
2022-08-14T01:14:55.431Z,55.54
2022-08-14T01:17:49.907Z,55.26
2022-08-14T01:20:35.906Z,54.76
2022-08-14T01:23:16.299Z,54.51
2022-08-14T01:25:49.209Z,54.62
2022-08-14T01:28:46.271Z,54.69
2022-08-14T01:31:12.218Z,55.25
2022-08-14T01:33:59.859Z,55.41
2022-08-14T01:36:49.057Z,56.53
2022-08-14T01:39:18.967Z,57.09
2022-08-14T01:41:56.280Z,56.68
2022-08-14T01:44:31.180Z,57.17
2022-08-14T01:47:05.931Z,57.79
2022-08-14T01:49:35.737Z,57.48
2022-08-14T01:52:34.462Z,58.15
2022-08-14T01:55:06.683Z,58.51
2022-08-14T01:58:00.809Z,59.05
2022-08-14T02:00:27.665Z,60.11
2022-08-14T02:02:56.936Z,59.82
2022-08-14T02:05:29.500Z,60.03
2022-08-14T02:08:09.392Z,59.89
2022-08-14T02:10:46.411Z,60.02
2022-08-14T02:13:16.751Z,60.56
2022-08-14T02:15:48.768Z,60.86
2022-08-14T02:18:18.617Z,61.42
2022-08-14T02:20:49.015Z,62.49
2022-08-14T02:23:28.982Z,63.30
2022-08-14T02:26:24.231Z,62.88
2022-08-14T02:28:56.487Z,63.00
2022-08-14T02:31:36.035Z,63.26
2022-08-14T02:34:22.324Z,63.44
2022-08-14T02:37:04.250Z,63.84
2022-08-14T02:39:38.240Z,64.02
2022-08-14T02:42:13.018Z,64.26
2022-08-14T02:44:48.766Z,63.94
2022-08-14T02:47:20.925Z,64.86
2022-08-14T02:49:54.793Z,64.63
2022-08-14T02:52:56.355Z,65.13
2022-08-14T02:55:15.623Z,65.63
2022-08-14T02:57:57.884Z,65.70
2022-08-14T03:00:35.278Z,65.56
2022-08-14T03:03:08.353Z,66.09
2022-08-14T03:05:41.670Z,66.31
2022-08-14T03:08:19.010Z,66.08
2022-08-14T03:10:50.207Z,66.01
2022-08-14T03:13:21.571Z,66.43
2022-08-14T03:15:55.499Z,66.80
2022-08-14T03:18:30.620Z,66.80
2022-08-14T03:21:01.934Z,67.58
2022-08-14T03:23:36.369Z,67.94
2022-08-14T03:26:08.577Z,68.01
2022-08-14T03:28:40.410Z,67.90
2022-08-14T03:31:13.345Z,67.90
2022-08-14T03:33:43.071Z,67.95
2022-08-14T03:37:38.144Z,67.89
2022-08-14T03:39:14.043Z,68.43
2022-08-14T03:41:51.662Z,68.66
2022-08-14T03:45:19.986Z,68.74
2022-08-14T03:47:08.402Z,69.08
2022-08-14T03:49:42.124Z,68.92
2022-08-14T03:52:28.154Z,69.44
2022-08-14T03:55:00.734Z,69.28
2022-08-14T03:57:32.749Z,69.95
2022-08-14T04:00:09.053Z,70.27
2022-08-14T04:02:47.325Z,70.71
2022-08-14T04:05:16.545Z,70.88
2022-08-14T04:07:49.749Z,71.04
2022-08-14T04:10:33.622Z,71.30
2022-08-14T04:13:05.940Z,71.66
2022-08-14T04:15:55.647Z,71.70
2022-08-14T04:18:23.297Z,72.04
2022-08-14T04:20:55.150Z,72.14
2022-08-14T04:23:29.476Z,72.47
2022-08-14T04:26:02.571Z,72.36
2022-08-14T04:29:01.945Z,72.89
2022-08-14T04:31:24.796Z,72.85
2022-08-14T04:34:20.829Z,73.16
2022-08-14T04:37:12.461Z,73.01
2022-08-14T04:39:58.883Z,73.34
2022-08-14T04:42:47.307Z,73.39
2022-08-14T04:45:23.593Z,73.26
2022-08-14T04:48:10.109Z,73.62
2022-08-14T04:50:44.602Z,73.67
2022-08-14T04:53:15.972Z,73.70
2022-08-14T04:55:47.808Z,73.74
2022-08-14T04:58:22.050Z,73.53
2022-08-14T05:01:06.294Z,73.36
2022-08-14T05:03:42.266Z,73.33
2022-08-14T05:06:38.072Z,73.34
2022-08-14T05:09:01.340Z,73.80
2022-08-14T05:11:33.433Z,72.42
2022-08-14T05:14:16.620Z,73.19
2022-08-14T05:16:59.290Z,73.12
2022-08-14T05:19:31.850Z,73.06
2022-08-14T05:22:16.950Z,73.03
2022-08-14T05:24:49.633Z,72.80
2022-08-14T05:27:23.301Z,72.38
2022-08-14T05:29:55.097Z,72.67
2022-08-14T05:32:27.624Z,72.15
2022-08-14T05:34:58.139Z,72.29
2022-08-14T05:37:26.595Z,72.44
2022-08-14T05:39:55.380Z,72.09
2022-08-14T05:42:29.477Z,71.51
2022-08-14T05:45:02.141Z,71.68
2022-08-14T05:47:39.159Z,71.81
2022-08-14T05:50:18.686Z,71.30
2022-08-14T05:52:50.348Z,71.54
2022-08-14T05:55:22.907Z,71.82
2022-08-14T05:57:59.361Z,71.46
2022-08-14T06:00:36.870Z,70.22
2022-08-14T06:03:11.004Z,71.05
2022-08-14T06:05:39.924Z,71.60
2022-08-14T06:08:31.215Z,71.70
2022-08-14T06:11:07.737Z,70.67
2022-08-14T06:13:44.614Z,70.31
2022-08-14T06:16:17.836Z,70.20
2022-08-14T06:18:52.998Z,70.92
2022-08-14T06:21:24.603Z,70.43
2022-08-14T06:23:54.372Z,70.68
2022-08-14T06:26:22.762Z,70.82
2022-08-14T06:28:59.915Z,70.72
2022-08-14T06:31:28.096Z,70.89
2022-08-14T06:35:03.613Z,70.81
2022-08-14T06:36:45.912Z,70.82
2022-08-14T06:39:17.194Z,70.50
2022-08-14T06:41:57.820Z,70.34
2022-08-14T06:44:32.307Z,70.41
2022-08-14T06:47:01.990Z,70.04
2022-08-14T06:49:42.761Z,69.79
2022-08-14T06:52:15.260Z,69.59
2022-08-14T06:54:44.191Z,67.88
2022-08-14T06:57:12.656Z,68.08
2022-08-14T06:59:42.191Z,68.00
2022-08-14T07:02:28.809Z,68.18
2022-08-14T07:05:20.776Z,68.84
2022-08-14T07:07:52.199Z,68.55
2022-08-14T07:10:25.652Z,68.31
2022-08-14T07:13:01.533Z,67.43
2022-08-14T07:15:33.865Z,67.36
2022-08-14T07:18:03.603Z,67.96
2022-08-14T07:20:34.490Z,68.04
2022-08-14T07:23:08.606Z,67.71
2022-08-14T07:25:42.278Z,67.30
2022-08-14T07:28:20.821Z,67.53
2022-08-14T07:30:51.085Z,66.88
2022-08-14T07:33:24.677Z,66.88
2022-08-14T07:36:00.712Z,65.82
2022-08-14T07:38:36.231Z,65.49
2022-08-14T07:41:11.846Z,64.94
2022-08-14T07:43:47.404Z,63.13
2022-08-14T07:46:29.393Z,61.01
2022-08-14T07:48:59.140Z,61.24
2022-08-14T07:51:34.365Z,61.40
2022-08-14T07:54:11.311Z,61.68
2022-08-14T07:56:46.856Z,61.47
2022-08-14T07:59:18.714Z,61.71
2022-08-14T08:01:51.724Z,59.29
2022-08-14T08:04:27.071Z,60.44
2022-08-14T08:06:57.843Z,61.05
2022-08-14T08:09:32.371Z,61.00
2022-08-14T08:12:09.396Z,59.98
2022-08-14T08:14:56.665Z,59.41
2022-08-14T08:17:34.732Z,59.20
2022-08-14T08:20:11.798Z,58.67
2022-08-14T08:22:48.014Z,59.17
2022-08-14T08:25:18.859Z,59.26
2022-08-14T08:27:59.779Z,57.24
2022-08-14T08:30:29.008Z,56.73
2022-08-14T08:32:58.683Z,56.16
2022-08-14T08:35:46.524Z,55.37
2022-08-14T08:39:18.382Z,55.42
2022-08-14T08:41:11.165Z,55.59
2022-08-14T08:43:45.781Z,55.40
2022-08-14T08:46:21.518Z,55.53
2022-08-14T08:51:25.031Z,54.85
2022-08-14T08:54:02.153Z,55.60
2022-08-14T08:56:40.677Z,54.80
2022-08-14T08:59:22.031Z,54.52
2022-08-14T09:01:58.194Z,55.03
2022-08-14T09:04:27.415Z,54.89
2022-08-14T09:07:09.211Z,54.51
2022-08-14T09:09:56.898Z,54.42
2022-08-14T09:12:27.146Z,54.25
2022-08-14T09:15:00.881Z,53.30
2022-08-14T09:17:30.494Z,52.53
2022-08-14T09:20:01.971Z,51.68
2022-08-14T09:22:47.917Z,51.52
2022-08-14T09:25:19.598Z,50.59
2022-08-14T09:27:48.333Z,50.58
2022-08-14T09:30:32.748Z,49.99
2022-08-14T09:33:22.499Z,50.07
2022-08-14T09:36:18.482Z,50.27
2022-08-14T09:38:53.774Z,48.91
2022-08-14T09:42:20.352Z,49.92
2022-08-14T09:44:45.777Z,48.29
2022-08-14T09:47:18.793Z,47.80
2022-08-14T09:49:53.110Z,46.70
2022-08-14T09:52:33.981Z,46.97
2022-08-14T09:55:03.287Z,41.97
2022-08-14T09:57:33.308Z,40.52
2022-08-14T10:00:29.303Z,39.55
2022-08-14T10:03:05.585Z,39.70
2022-08-14T10:05:38.044Z,36.70
2022-08-14T10:08:26.110Z,36.29
2022-08-14T10:10:57.342Z,35.33
2022-08-14T10:13:52.959Z,33.40
2022-08-14T10:16:27.371Z,30.80
2022-08-14T10:19:09.485Z,31.44
2022-08-14T10:23:13.549Z,33.41
2022-08-14T10:24:36.774Z,34.80
2022-08-14T10:27:17.024Z,34.38
2022-08-14T10:29:50.125Z,35.41
2022-08-14T10:32:36.227Z,35.94
2022-08-14T10:35:14.488Z,35.84
2022-08-14T10:37:48.342Z,36.24
2022-08-14T10:40:43.394Z,36.13
2022-08-14T10:43:22.923Z,37.13
2022-08-14T10:45:59.773Z,36.93
2022-08-14T10:48:58.249Z,34.50
2022-08-14T10:51:30.110Z,35.11
2022-08-14T10:54:35.322Z,34.32
2022-08-14T10:56:57.520Z,35.38
2022-08-14T10:59:34.987Z,34.66
2022-08-14T11:02:45.300Z,35.61
2022-08-14T11:05:14.815Z,35.04
2022-08-14T11:07:56.352Z,34.73
2022-08-14T11:10:27.773Z,33.98
2022-08-14T11:12:59.337Z,33.55
2022-08-14T11:15:32.327Z,32.05
2022-08-14T11:18:02.198Z,30.67
2022-08-14T11:20:32.189Z,30.05
2022-08-14T11:23:02.827Z,28.47
2022-08-14T11:25:41.303Z,28.44
2022-08-14T11:28:19.239Z,27.37
2022-08-14T11:30:53.835Z,27.31
2022-08-14T11:33:29.813Z,26.20
2022-08-14T11:36:00.418Z,26.56
2022-08-14T11:38:37.861Z,24.69
2022-08-14T11:41:07.492Z,25.36
2022-08-14T11:43:41.731Z,24.92
2022-08-14T11:46:17.932Z,25.48
2022-08-14T11:49:05.787Z,25.13
2022-08-14T11:51:53.777Z,24.96
2022-08-14T11:54:34.294Z,25.41
2022-08-14T11:57:04.692Z,25.54
2022-08-14T11:59:34.015Z,25.00
2022-08-14T12:03:00.082Z,24.74
2022-08-14T12:05:00.545Z,24.23
2022-08-14T12:07:33.424Z,23.80
2022-08-14T12:10:26.560Z,25.59
2022-08-14T12:12:54.825Z,25.06
2022-08-14T12:15:31.412Z,25.29
2022-08-14T12:18:01.123Z,25.69
2022-08-14T12:20:38.721Z,25.22
2022-08-14T12:23:23.337Z,24.88
2022-08-14T12:26:39.883Z,25.45
2022-08-14T12:28:59.639Z,26.04
2022-08-14T12:31:36.414Z,25.52
2022-08-14T12:34:20.473Z,25.84
2022-08-14T12:37:05.711Z,25.41
2022-08-14T12:39:40.047Z,24.48
2022-08-14T12:42:34.610Z,23.79
2022-08-14T12:45:03.837Z,25.05
2022-08-14T12:47:32.549Z,25.07
2022-08-14T12:50:01.402Z,25.20
2022-08-14T12:52:36.217Z,25.27
2022-08-14T12:55:20.961Z,24.77
2022-08-14T12:57:53.721Z,25.92
2022-08-14T13:00:24.468Z,25.38
2022-08-14T13:02:56.479Z,24.59
2022-08-14T13:05:27.529Z,25.40
2022-08-14T13:08:32.043Z,24.86
2022-08-14T13:11:02.642Z,25.43
2022-08-14T13:13:34.426Z,25.44
2022-08-14T13:16:20.323Z,25.92
2022-08-14T13:18:58.371Z,25.15
2022-08-14T13:21:30.365Z,25.01
2022-08-14T13:24:20.886Z,25.76
2022-08-14T13:26:51.982Z,25.98
2022-08-14T13:29:23.119Z,27.01
2022-08-14T13:31:55.082Z,26.62
2022-08-14T13:34:25.894Z,25.63
2022-08-14T13:37:03.704Z,26.31
2022-08-14T13:39:36.200Z,25.55
2022-08-14T13:42:10.915Z,26.74
2022-08-14T13:44:43.013Z,25.99
2022-08-14T13:47:12.450Z,26.22
2022-08-14T13:49:57.555Z,26.51
2022-08-14T13:52:52.117Z,26.69
2022-08-14T13:55:19.740Z,27.29
2022-08-14T13:57:56.849Z,27.16
2022-08-14T14:00:53.264Z,28.21
2022-08-14T14:03:26.176Z,29.09
2022-08-14T14:06:00.116Z,29.20
2022-08-14T14:08:45.948Z,29.12
2022-08-14T14:11:20.930Z,28.39
2022-08-14T14:13:49.416Z,28.76
2022-08-14T14:16:25.928Z,29.57
2022-08-14T14:19:06.030Z,29.55
2022-08-14T14:21:36.016Z,29.67
2022-08-14T14:24:05.931Z,28.78
2022-08-14T14:26:36.316Z,28.83
2022-08-14T14:29:07.618Z,29.08
2022-08-14T14:31:38.872Z,29.70
2022-08-14T14:34:12.617Z,30.57
2022-08-14T14:37:24.402Z,30.51
2022-08-14T14:40:53.927Z,29.87
2022-08-14T14:42:51.855Z,28.83
2022-08-14T14:45:23.884Z,29.29
2022-08-14T14:47:59.173Z,29.28
2022-08-14T14:50:28.706Z,28.98
2022-08-14T14:53:12.226Z,28.85
2022-08-14T14:56:47.882Z,29.18
2022-08-14T14:58:35.582Z,29.10
2022-08-14T15:01:08.769Z,28.98
2022-08-14T15:03:40.527Z,28.92
2022-08-14T15:06:10.091Z,29.17
2022-08-14T15:08:56.920Z,28.66
2022-08-14T15:11:30.357Z,29.02
2022-08-14T15:14:55.328Z,28.48
2022-08-14T15:16:53.584Z,28.72
2022-08-14T15:19:27.660Z,28.62
2022-08-14T15:21:58.161Z,28.66
2022-08-14T15:24:27.227Z,29.46
2022-08-14T15:26:58.591Z,30.05
2022-08-14T15:29:28.534Z,30.49
2022-08-14T15:31:56.492Z,30.37
2022-08-14T15:34:43.367Z,30.69
2022-08-14T15:37:16.743Z,31.11
2022-08-14T15:39:45.464Z,32.19
2022-08-14T15:42:17.074Z,31.67
2022-08-14T15:44:58.033Z,30.79
2022-08-14T15:47:31.231Z,31.48
2022-08-14T15:50:01.636Z,32.38
2022-08-14T15:52:33.092Z,31.80
2022-08-14T15:55:04.582Z,31.46
2022-08-14T15:57:32.626Z,32.10
2022-08-14T16:00:40.837Z,31.96
2022-08-14T16:03:16.596Z,30.75
2022-08-14T16:05:46.030Z,31.39
2022-08-14T16:08:29.283Z,31.41
2022-08-14T16:11:00.708Z,32.14
2022-08-14T16:13:41.861Z,32.21
2022-08-14T16:16:46.996Z,30.67
2022-08-14T16:19:10.690Z,31.10
2022-08-14T16:22:02.193Z,32.06
2022-08-14T16:24:36.038Z,30.75
2022-08-14T16:27:33.654Z,31.46
2022-08-14T16:30:12.296Z,31.92
2022-08-14T16:32:57.443Z,31.18
2022-08-14T16:35:42.984Z,31.42
2022-08-14T16:38:35.784Z,31.95
2022-08-14T16:41:22.236Z,31.96
2022-08-14T16:43:54.242Z,32.63
2022-08-14T16:46:28.647Z,33.41
2022-08-14T16:49:00.012Z,33.49
2022-08-14T16:51:34.916Z,32.33
2022-08-14T16:54:33.769Z,32.79
2022-08-14T16:56:57.268Z,33.25
2022-08-14T16:59:30.500Z,33.71
2022-08-14T17:02:14.874Z,33.22
2022-08-14T17:04:49.149Z,34.18
2022-08-14T17:07:17.838Z,32.82
2022-08-14T17:09:48.676Z,34.10
2022-08-14T17:12:28.346Z,32.97
2022-08-14T17:15:10.757Z,33.36
2022-08-14T17:17:58.032Z,32.48
2022-08-14T17:20:53.769Z,33.99
2022-08-14T17:23:18.223Z,33.33
2022-08-14T17:25:50.727Z,32.39
2022-08-14T17:28:50.448Z,32.77
2022-08-14T17:31:12.291Z,34.90
2022-08-14T17:33:51.722Z,34.63
2022-08-14T17:36:24.008Z,33.50
2022-08-14T17:39:00.520Z,33.36
2022-08-14T17:41:37.893Z,35.90
2022-08-14T17:44:21.639Z,33.98
2022-08-14T17:46:55.130Z,36.19
2022-08-14T17:49:28.171Z,34.26
2022-08-14T17:52:07.337Z,34.59
2022-08-14T17:54:39.263Z,36.37
2022-08-14T17:57:20.000Z,36.55
2022-08-14T17:59:49.372Z,36.57
2022-08-14T18:02:22.712Z,38.13
2022-08-14T18:05:00.648Z,38.52
2022-08-14T18:07:59.412Z,38.78
2022-08-14T18:10:52.972Z,39.58
2022-08-14T18:13:10.605Z,38.02
2022-08-14T18:15:41.471Z,38.19
2022-08-14T18:18:16.131Z,38.67
2022-08-14T18:21:39.922Z,38.73
2022-08-14T18:23:33.986Z,39.22
2022-08-14T18:26:37.698Z,39.57
2022-08-14T18:29:01.062Z,39.34
2022-08-14T18:31:42.024Z,39.71
2022-08-14T18:34:30.878Z,39.41
2022-08-14T18:37:09.642Z,39.70
2022-08-14T18:40:02.791Z,40.69
2022-08-14T18:42:45.891Z,40.72
2022-08-14T18:45:19.042Z,39.36
2022-08-14T18:48:33.178Z,39.85
2022-08-14T18:51:45.577Z,40.61
2022-08-14T18:54:29.639Z,40.25
2022-08-14T18:57:03.447Z,40.02
2022-08-14T18:59:40.338Z,41.06
2022-08-14T19:02:44.350Z,40.71
2022-08-14T19:05:14.429Z,40.55
2022-08-14T19:07:43.589Z,40.89
2022-08-14T19:10:31.918Z,40.81
2022-08-14T19:13:12.068Z,39.74
2022-08-14T19:15:43.719Z,39.64
2022-08-14T19:18:26.331Z,39.89
2022-08-14T19:20:58.242Z,40.88
2022-08-14T19:23:42.448Z,39.81
2022-08-14T19:26:35.349Z,40.06
2022-08-14T19:29:36.078Z,41.20
2022-08-14T19:32:25.445Z,40.92
2022-08-14T19:34:59.816Z,40.67
2022-08-14T19:37:52.462Z,41.01
2022-08-14T19:40:34.035Z,40.61
2022-08-14T19:43:06.567Z,41.59
2022-08-14T19:45:39.916Z,40.22
2022-08-14T19:48:15.789Z,38.87
2022-08-14T19:50:46.780Z,39.02
2022-08-14T19:53:18.328Z,37.93
2022-08-14T19:55:59.031Z,37.98
2022-08-14T19:58:54.057Z,38.21
2022-08-14T20:01:36.446Z,37.80
2022-08-14T20:04:45.736Z,37.63
2022-08-14T20:07:04.414Z,37.54
2022-08-14T20:11:06.881Z,37.96
2022-08-14T20:12:35.375Z,37.98
2022-08-14T20:15:15.289Z,37.87
2022-08-14T20:17:53.175Z,38.22
2022-08-14T20:20:31.431Z,38.84
2022-08-14T20:23:11.593Z,39.65
2022-08-14T20:25:56.414Z,39.46
2022-08-14T20:28:35.991Z,40.36
2022-08-14T20:31:17.901Z,40.58
2022-08-14T20:34:18.733Z,40.72
2022-08-14T20:37:04.368Z,40.47
2022-08-14T20:39:38.200Z,40.08
2022-08-14T20:42:28.629Z,40.02
2022-08-14T20:45:19.014Z,40.39
2022-08-14T20:47:53.621Z,40.31
2022-08-14T20:50:28.635Z,40.35
2022-08-14T20:52:58.185Z,40.27
2022-08-14T20:55:32.410Z,40.58
2022-08-14T20:58:03.894Z,40.59
2022-08-14T21:00:52.671Z,40.73
2022-08-14T21:03:36.643Z,40.92
2022-08-14T21:07:22.900Z,40.63
2022-08-14T21:10:05.403Z,40.74
2022-08-14T21:12:33.749Z,40.80
2022-08-14T21:15:03.143Z,40.87
2022-08-14T21:17:31.283Z,41.09
2022-08-14T21:20:21.273Z,41.04
2022-08-14T21:22:52.406Z,41.06
2022-08-14T21:29:26.320Z,40.38
2022-08-14T21:31:55.546Z,40.67
2022-08-14T21:34:31.049Z,41.08
2022-08-14T21:37:09.842Z,40.94
2022-08-14T21:39:38.277Z,41.07
2022-08-14T21:42:06.813Z,41.02
2022-08-14T21:44:43.543Z,41.61
2022-08-14T21:47:13.431Z,42.08
2022-08-14T21:49:46.274Z,41.79
2022-08-14T21:52:49.832Z,41.24
2022-08-14T21:55:10.535Z,42.04
2022-08-14T21:58:44.502Z,41.70
2022-08-14T22:00:35.415Z,41.84
2022-08-14T22:03:09.005Z,41.91
2022-08-14T22:05:38.647Z,42.41
2022-08-14T22:08:12.014Z,43.37
2022-08-14T22:10:42.293Z,43.99
2022-08-14T22:13:11.290Z,44.46
2022-08-14T22:15:43.732Z,44.40
2022-08-14T22:18:20.258Z,44.67
2022-08-14T22:20:53.346Z,44.45
2022-08-14T22:23:24.783Z,45.03
2022-08-14T22:25:55.184Z,44.89
2022-08-14T22:28:27.260Z,45.42
2022-08-14T22:31:03.602Z,45.35
2022-08-14T22:33:39.739Z,45.55
2022-08-14T22:36:33.609Z,46.22
2022-08-14T22:39:04.927Z,46.20
2022-08-14T22:41:42.652Z,46.39
2022-08-14T22:44:15.011Z,46.62
2022-08-14T22:46:45.161Z,47.40
2022-08-14T22:50:31.239Z,47.31
2022-08-14T22:52:19.123Z,48.05
2022-08-14T22:54:58.792Z,48.20
2022-08-14T22:57:37.732Z,48.37
2022-08-14T23:00:14.257Z,48.29
2022-08-14T23:02:43.423Z,48.93
2022-08-14T23:05:15.184Z,48.56
2022-08-14T23:08:58.288Z,49.21
2022-08-14T23:10:34.814Z,48.83
2022-08-14T23:13:04.716Z,49.16
2022-08-14T23:15:34.000Z,48.69
2022-08-14T23:18:03.435Z,48.86
2022-08-14T23:20:36.208Z,48.56
2022-08-14T23:23:12.981Z,49.29
2022-08-14T23:25:58.700Z,49.63
2022-08-14T23:28:57.098Z,49.26
2022-08-14T23:31:36.107Z,49.82
2022-08-14T23:34:06.837Z,49.81
2022-08-14T23:36:38.079Z,50.49
2022-08-14T23:39:24.286Z,50.70
2022-08-14T23:41:54.425Z,50.68
2022-08-14T23:44:24.244Z,50.59
2022-08-14T23:46:57.088Z,51.16
2022-08-14T23:49:56.887Z,51.83
2022-08-14T23:52:55.721Z,52.46
2022-08-14T23:55:11.028Z,52.34
2022-08-14T23:57:44.291Z,52.36
